Virtual Norwegian is not affiliated with Norwegian Air Shuttle in any way.
If you are looking for the real "Norwegian", or you wish to book Norwegian flights, please visit Norwegian.com


We use cookies to ensure you get the best experience on our website.   ACCEPT

LGAV - ATH - Athens (Eleftherios Venizelos Intl)

General Info Alternate Airport
ICAO: LGAV Elevation: 308 ft ICAO: LGTS
IATA: ATH Country: Greece IATA: SKG
City: Athens Charts: Log in to view charts City: Thessaloniki
Name: Eleftherios Venizelos Intl Hub: No Name Makedonia
General Info
ICAO: LGAV
IATA: ATH
City: Athens
Name: Eleftherios Venizelos Intl
Elevation: 308 ft
Country: Greece
Charts: Log in to view charts
Hub: No
 
Alternate Airport
ICAO: LGTS
IATA: SKG
City: Thessaloniki
Name: Makedonia

Weather
121750Z 24001KT 9999 FEW030 13/09 Q1023 NOSIG
Weather
121750Z 24001KT 9999 FEW030 13/09 Q1023 NOSIG

Runway Info
03L
Length ILS/LOC Course
3800 m 110.50 034
03R
Length ILS/LOC Course
4000 m 111.10 034
21L
Length ILS/LOC Course
4000 m 111.10 214
21R
Length ILS/LOC Course
3800 m 110.50 214

NOTAMs
NOTAMs currently unavailable.
NOTAMs
NOTAMs currently unavailable

Route map
Airport
Airport (hub)